createdAt,value
2023-01-28T00:00:09.884Z,100186.22
2023-01-28T00:01:15.075Z,100174.20
2023-01-28T00:02:17.639Z,100174.20
2023-01-28T00:03:21.046Z,100178.36
2023-01-28T00:04:23.334Z,100175.80
2023-01-28T00:05:25.779Z,100182.69
2023-01-28T00:06:28.108Z,100181.12
2023-01-28T00:07:30.694Z,100183.67
2023-01-28T00:08:36.623Z,100177.73
2023-01-28T00:09:39.043Z,100170.95
2023-01-28T00:11:54.349Z,100171.75
2023-01-28T00:12:56.803Z,100174.12
2023-01-28T00:13:59.481Z,100178.30
2023-01-28T00:15:03.350Z,100177.36
2023-01-28T00:16:08.246Z,100174.80
2023-01-28T00:17:10.283Z,100175.68
2023-01-28T00:18:13.515Z,100175.73
2023-01-28T00:19:15.974Z,100179.17
2023-01-28T00:20:18.674Z,100182.58
2023-01-28T00:21:21.012Z,100174.02
2023-01-28T00:22:23.143Z,100184.13
2023-01-28T00:23:27.206Z,100184.94
2023-01-28T00:24:29.385Z,100185.84
2023-01-28T00:25:31.435Z,100180.73
2023-01-28T00:27:54.550Z,100185.70
2023-01-28T00:28:57.749Z,100192.48
2023-01-28T00:29:59.793Z,100182.27
2023-01-28T00:32:21.310Z,100183.35
2023-01-28T00:33:23.626Z,100180.66
2023-01-28T00:34:25.624Z,100182.33
2023-01-28T00:35:28.763Z,100177.30
2023-01-28T00:36:32.105Z,100173.14
2023-01-28T00:37:36.141Z,100170.58
2023-01-28T00:38:39.038Z,100167.20
2023-01-28T00:39:41.137Z,100173.14
2023-01-28T00:40:44.343Z,100170.70
2023-01-28T00:41:46.349Z,100167.31
2023-01-28T00:42:48.281Z,100163.97
2023-01-28T00:43:50.805Z,100163.97
2023-01-28T00:44:53.427Z,100171.70
2023-01-28T00:45:57.825Z,100168.31
2023-01-28T00:47:00.405Z,100176.06
2023-01-28T00:48:02.296Z,100164.96
2023-01-28T00:49:04.329Z,100172.67
2023-01-28T00:50:07.056Z,100176.08
2023-01-28T00:51:11.382Z,100174.25
2023-01-28T00:52:13.616Z,100154.49
2023-01-28T00:53:16.034Z,100154.49
2023-01-28T00:54:21.277Z,100173.18
2023-01-28T00:55:23.702Z,100178.17
2023-01-28T00:56:25.895Z,100170.58
2023-01-28T00:57:27.989Z,100175.75
2023-01-28T00:58:30.680Z,100177.39
2023-01-28T00:59:32.621Z,100179.89
2023-01-28T01:00:34.997Z,100176.58
2023-01-28T01:01:37.081Z,100169.86
2023-01-28T01:02:42.017Z,100178.35
2023-01-28T01:03:45.131Z,100178.34
2023-01-28T01:04:49.219Z,100175.80
2023-01-28T01:05:51.207Z,100180.13
2023-01-28T01:06:53.503Z,100186.02
2023-01-28T01:07:55.738Z,100177.45
2023-01-28T01:08:57.714Z,100174.91
2023-01-28T01:10:03.933Z,100182.64
2023-01-28T01:11:07.766Z,100182.64
2023-01-28T01:12:09.715Z,100175.91
2023-01-28T01:13:12.807Z,100173.41
2023-01-28T01:14:15.802Z,100174.30
2023-01-28T01:15:19.442Z,100172.63
2023-01-28T01:16:24.884Z,100159.08
2023-01-28T01:17:31.733Z,100165.07
2023-01-28T01:18:34.421Z,100156.56
2023-01-28T01:19:36.920Z,100159.02
2023-01-28T01:20:43.307Z,100159.91
2023-01-28T01:21:47.461Z,100164.09
2023-01-28T01:22:49.848Z,100159.77
2023-01-28T01:23:53.316Z,100153.72
2023-01-28T01:24:57.034Z,100158.87
2023-01-28T01:25:59.298Z,100156.33
2023-01-28T01:27:01.917Z,100153.81
2023-01-28T01:28:04.317Z,100154.59
2023-01-28T01:29:06.432Z,100151.22
2023-01-28T01:30:11.628Z,100157.20
2023-01-28T01:31:16.998Z,100158.98
2023-01-28T01:32:19.946Z,100159.06
2023-01-28T01:33:22.036Z,100160.75
2023-01-28T01:34:25.375Z,100145.18
2023-01-28T01:35:27.804Z,100145.18
2023-01-28T01:36:31.101Z,100162.16
2023-01-28T01:37:36.125Z,100164.70
2023-01-28T01:38:39.797Z,100164.66
2023-01-28T01:39:43.057Z,100163.88
2023-01-28T01:40:45.422Z,100166.43
2023-01-28T01:41:47.653Z,100157.98
2023-01-28T01:42:50.696Z,100159.61
2023-01-28T01:43:56.492Z,100166.32
2023-01-28T01:45:05.430Z,100167.03
2023-01-28T01:46:08.489Z,100165.12
2023-01-28T01:47:11.385Z,100166.76
2023-01-28T01:48:22.636Z,100163.38
2023-01-28T01:49:28.217Z,100157.34
2023-01-28T01:50:37.338Z,100158.16
2023-01-28T01:51:40.111Z,100157.39
2023-01-28T01:52:43.762Z,100154.96
2023-01-28T01:53:49.296Z,100156.56
2023-01-28T05:40:43.162Z,100187.91
2023-01-28T05:41:45.646Z,100188.66
2023-01-28T05:42:48.065Z,100185.36
2023-01-28T05:43:58.836Z,100186.91
2023-01-28T05:45:07.259Z,100189.39
2023-01-28T05:46:13.334Z,100183.39
2023-01-28T05:47:30.374Z,100184.36
2023-01-28T05:52:01.646Z,100180.83
2023-01-28T05:53:06.686Z,100181.58
2023-01-28T05:54:09.961Z,100175.55
2023-01-28T05:55:12.376Z,100190.03
2023-01-28T05:56:15.382Z,100178.26
2023-01-28T05:57:18.038Z,100179.92
2023-01-28T05:58:21.086Z,100182.44
2023-01-28T05:59:23.974Z,100178.26
2023-01-28T06:00:28.135Z,100179.08
2023-01-28T06:01:31.160Z,100185.08
2023-01-28T06:02:34.444Z,100186.77
2023-01-28T06:03:36.408Z,100182.56
2023-01-28T06:04:39.163Z,100188.48
2023-01-28T06:05:41.570Z,100179.01
2023-01-28T06:06:44.535Z,100179.76
2023-01-28T06:07:47.824Z,100173.77
2023-01-28T06:08:51.194Z,100182.23
2023-01-28T06:09:56.220Z,100182.91
2023-01-28T06:10:58.388Z,100172.63
2023-01-28T06:12:00.609Z,100176.84
2023-01-28T06:13:03.157Z,100177.80
2023-01-28T06:14:13.155Z,100182.97
2023-01-28T06:16:29.606Z,100183.45
2023-01-28T06:17:36.821Z,100179.84
2023-01-28T06:18:44.256Z,100181.42
2023-01-28T06:19:46.552Z,100177.21
2023-01-28T06:20:50.973Z,100179.78
2023-01-28T06:21:53.344Z,100181.66
2023-01-28T06:22:56.302Z,100175.05
2023-01-28T06:23:59.070Z,100177.66
2023-01-28T06:25:01.236Z,100169.95
2023-01-28T06:26:03.792Z,100173.23
2023-01-28T06:27:06.584Z,100174.82
2023-01-28T06:28:10.382Z,100179.89
2023-01-28T06:29:13.140Z,100189.43
2023-01-28T06:30:16.730Z,100189.36
2023-01-28T06:31:19.188Z,100177.46
2023-01-28T06:32:22.547Z,100180.88
2023-01-28T06:33:25.961Z,100183.45
2023-01-28T06:34:28.257Z,100173.39
2023-01-28T06:35:30.330Z,100178.56
2023-01-28T06:36:33.065Z,100175.11
2023-01-28T06:37:35.339Z,100172.64
2023-01-28T06:38:37.430Z,100173.53
2023-01-28T06:39:39.522Z,100176.27
2023-01-28T06:40:42.422Z,100183.10
2023-01-28T06:41:45.504Z,100185.59
2023-01-28T06:42:48.122Z,100186.48
2023-01-28T06:43:51.481Z,100189.98
2023-01-28T06:44:53.612Z,100192.59
2023-01-28T06:45:56.774Z,100194.27
2023-01-28T06:46:59.082Z,100196.63
2023-01-28T06:48:01.573Z,100188.88
2023-01-28T06:49:05.056Z,100193.77
2023-01-28T06:50:09.716Z,100194.59
2023-01-28T06:51:12.059Z,100195.27
2023-01-28T06:52:15.057Z,100192.75
2023-01-28T06:53:17.993Z,100195.22
2023-01-28T06:54:20.366Z,100194.97
2023-01-28T06:55:22.367Z,100189.95
2023-01-28T06:56:24.667Z,100181.50
2023-01-28T06:57:26.609Z,100182.14
2023-01-28T06:58:28.439Z,100181.39
2023-01-28T06:59:30.406Z,100186.57
2023-01-28T07:00:33.858Z,100186.57
2023-01-28T07:01:36.489Z,100186.68
2023-01-28T07:02:39.943Z,100183.19
2023-01-28T07:03:42.271Z,100190.09
2023-01-28T07:04:44.383Z,100195.22
2023-01-28T07:05:46.904Z,100194.31
2023-01-28T07:06:49.118Z,100188.40
2023-01-28T07:07:51.693Z,100188.48
2023-01-28T07:08:53.791Z,100189.42
2023-01-28T07:09:55.945Z,100185.97
2023-01-28T07:10:59.948Z,100196.94
2023-01-28T07:12:06.143Z,100195.87
2023-01-28T07:13:08.258Z,100194.97
2023-01-28T07:14:10.382Z,100198.34
2023-01-28T07:15:14.625Z,100203.61
2023-01-28T07:16:17.231Z,100207.13
2023-01-28T07:17:19.951Z,100200.39
2023-01-28T07:18:22.405Z,100200.38
2023-01-28T07:19:25.583Z,100205.57
2023-01-28T07:20:28.176Z,100204.80
2023-01-28T07:21:30.595Z,100198.43
2023-01-28T07:22:32.857Z,100194.09
2023-01-28T07:23:36.370Z,100201.03
2023-01-28T07:24:38.638Z,100206.14
2023-01-28T07:25:40.785Z,100193.39
2023-01-28T07:26:42.870Z,100198.67
2023-01-28T07:27:51.671Z,100196.34
2023-01-28T07:28:54.832Z,100193.94
2023-01-28T07:29:57.232Z,100192.39
2023-01-28T07:30:59.825Z,100199.30
2023-01-28T07:32:03.289Z,100193.16
2023-01-28T07:33:05.361Z,100182.19
2023-01-28T07:34:09.404Z,100184.81
2023-01-28T07:35:14.003Z,100178.89
2023-01-28T07:36:16.331Z,100179.78
2023-01-28T07:37:18.548Z,100183.09
2023-01-28T07:38:21.199Z,100188.12
2023-01-28T07:39:23.556Z,100178.57
2023-01-28T07:40:27.185Z,100175.23
2023-01-28T07:41:30.341Z,100171.09
2023-01-28T07:42:34.811Z,100172.82
2023-01-28T07:43:39.547Z,100174.61
2023-01-28T07:44:42.858Z,100173.79
2023-01-28T07:45:48.494Z,100175.45
2023-01-28T07:46:50.100Z,100175.56
2023-01-28T07:47:57.298Z,100172.96
2023-01-28T07:48:59.762Z,100170.45
2023-01-28T07:50:02.152Z,100170.28
2023-01-28T07:51:04.561Z,100175.39
2023-01-28T07:52:09.000Z,100177.17
2023-01-28T07:53:11.834Z,100181.38
2023-01-28T07:54:13.939Z,100186.34
2023-01-28T07:55:18.300Z,100182.83
2023-01-28T07:56:20.433Z,100184.47
2023-01-28T07:57:26.457Z,100187.72
2023-01-28T07:58:28.608Z,100190.34
2023-01-28T07:59:30.510Z,100193.05
2023-01-28T08:00:35.376Z,100198.97
2023-01-28T08:01:38.889Z,100210.05
2023-01-28T08:02:40.991Z,100205.84
2023-01-28T08:03:43.647Z,100202.53
2023-01-28T08:04:46.015Z,100202.53
2023-01-28T08:05:51.203Z,100204.27
2023-01-28T08:06:53.859Z,100199.22
2023-01-28T08:07:58.348Z,100209.39
2023-01-28T08:09:00.302Z,100206.89
2023-01-28T08:10:02.853Z,100197.58
2023-01-28T08:11:08.980Z,100208.66
2023-01-28T08:12:11.223Z,100209.39
2023-01-28T08:13:15.313Z,100201.80
2023-01-28T08:14:17.633Z,100200.95
2023-01-28T08:15:20.281Z,100205.15
2023-01-28T08:16:22.419Z,100204.41
2023-01-28T08:17:24.648Z,100207.02
2023-01-28T08:18:26.771Z,100207.03
2023-01-28T08:19:28.787Z,100201.09
2023-01-28T08:20:31.817Z,100201.07
2023-01-28T08:21:34.653Z,100196.03
2023-01-28T08:22:36.788Z,100190.99
2023-01-28T08:23:38.795Z,100189.45
2023-01-28T08:24:40.914Z,100189.45
2023-01-28T08:25:43.599Z,100201.55
2023-01-28T08:26:48.757Z,100201.60
2023-01-28T08:27:50.900Z,100206.77
2023-01-28T08:28:52.783Z,100195.77
2023-01-28T08:29:55.031Z,100196.50
2023-01-28T08:31:00.446Z,100194.05
2023-01-28T08:32:02.690Z,100187.27
2023-01-28T08:33:06.823Z,100197.48
2023-01-28T08:34:09.172Z,100194.05
2023-01-28T08:35:11.206Z,100194.78
2023-01-28T08:36:13.330Z,100194.67
2023-01-28T08:37:15.348Z,100195.61
2023-01-28T08:38:17.492Z,100193.90
2023-01-28T08:39:20.507Z,100193.89
2023-01-28T08:40:22.900Z,100186.13
2023-01-28T08:41:25.033Z,100194.67
2023-01-28T08:42:27.288Z,100187.05
2023-01-28T08:43:29.899Z,100186.13
2023-01-28T08:44:32.664Z,100185.24
2023-01-28T08:45:35.079Z,100182.56
2023-01-28T08:46:37.336Z,100180.68
2023-01-28T08:47:49.897Z,100188.33
2023-01-28T08:48:52.263Z,100179.89
2023-01-28T08:49:54.508Z,100179.06
2023-01-28T08:50:59.427Z,100177.45
2023-01-28T08:52:01.670Z,100178.41
2023-01-28T08:53:07.250Z,100178.47
2023-01-28T08:54:09.525Z,100178.53
2023-01-28T08:55:12.659Z,100183.63
2023-01-28T08:56:15.946Z,100177.69
2023-01-28T08:57:18.015Z,100170.80
2023-01-28T08:58:21.488Z,100174.30
2023-01-28T08:59:23.548Z,100173.45
2023-01-28T09:00:25.817Z,100169.23
2023-01-28T09:01:29.445Z,100164.17
2023-01-28T09:02:32.830Z,100160.80
2023-01-28T09:03:36.386Z,100164.22
2023-01-28T09:04:38.464Z,100164.27
2023-01-28T09:05:41.228Z,100154.98
2023-01-28T09:06:43.433Z,100154.22
2023-01-28T09:07:46.253Z,100155.06
2023-01-28T09:08:48.450Z,100161.09
2023-01-28T09:09:50.488Z,100149.99
2023-01-28T09:10:59.324Z,100146.59
2023-01-28T09:12:01.699Z,100150.03
2023-01-28T09:13:09.340Z,100144.05
2023-01-28T09:14:11.757Z,100149.11
2023-01-28T09:15:14.664Z,100152.47
2023-01-28T09:16:16.957Z,100133.70
2023-01-28T09:17:20.436Z,100133.70
2023-01-28T09:18:22.990Z,100149.79
2023-01-28T09:19:25.126Z,100141.23
2023-01-28T09:20:27.746Z,100137.76
2023-01-28T09:21:30.261Z,100139.52
2023-01-28T09:22:33.374Z,100135.16
2023-01-28T09:23:37.987Z,100141.09
2023-01-28T09:24:40.316Z,100135.16
2023-01-28T09:25:42.247Z,100133.44
2023-01-28T09:26:44.921Z,100136.83
2023-01-28T09:27:47.150Z,100122.94
2023-01-28T09:28:49.308Z,100122.94
2023-01-28T09:29:52.054Z,100139.02
2023-01-28T09:31:07.738Z,100132.95
2023-01-28T09:32:10.995Z,100129.47
2023-01-28T09:33:13.043Z,100126.14
2023-01-28T09:34:15.250Z,100132.18
2023-01-28T09:35:19.897Z,100127.54
2023-01-28T09:36:23.193Z,100126.08
2023-01-28T09:37:25.458Z,100134.68
2023-01-28T09:38:29.697Z,100138.23
2023-01-28T09:39:32.038Z,100128.96
2023-01-28T09:40:37.263Z,100128.68
2023-01-28T09:41:45.854Z,100122.74
2023-01-28T09:43:00.906Z,100124.59
2023-01-28T09:44:06.846Z,100122.20
2023-01-28T09:45:27.139Z,100123.13
2023-01-28T14:04:07.408Z,99977.59
2023-01-28T14:05:35.595Z,99980.23
2023-01-28T14:06:48.966Z,99981.93
2023-01-28T14:08:18.839Z,99984.52
2023-01-28T14:09:36.834Z,99988.80
2023-01-28T14:10:53.151Z,99975.97
2023-01-28T14:12:11.898Z,99978.53
2023-01-28T14:13:53.104Z,99976.86
2023-01-28T14:15:23.420Z,99981.20
2023-01-28T14:16:33.225Z,99971.88
2023-01-28T14:17:48.355Z,99967.70
2023-01-28T14:18:52.256Z,99973.70
2023-01-28T14:19:57.455Z,99979.72
2023-01-28T14:21:05.403Z,99976.31
2023-01-28T14:22:10.068Z,99977.19
2023-01-28T14:23:18.600Z,99972.08
2023-01-28T14:24:21.637Z,99972.96
2023-01-28T14:25:35.906Z,99983.20
2023-01-28T14:26:57.614Z,99979.80
2023-01-28T14:28:02.883Z,99982.38
2023-01-28T14:29:41.103Z,99975.52
2023-01-28T14:30:53.109Z,99978.97
2023-01-28T14:31:56.792Z,99974.69
2023-01-28T14:32:59.675Z,99972.13
2023-01-28T14:34:25.778Z,99975.55
2023-01-28T14:35:33.092Z,99975.55
2023-01-28T14:36:45.057Z,99973.84
2023-01-28T14:37:47.662Z,99984.95
2023-01-28T14:38:50.211Z,99977.27
2023-01-28T14:39:59.014Z,99983.23
2023-01-28T14:41:01.835Z,99973.85
2023-01-28T14:42:05.489Z,99980.68
2023-01-28T14:43:12.174Z,99989.20
2023-01-28T14:44:28.199Z,99982.38
2023-01-28T14:45:53.602Z,99985.78
2023-01-28T14:47:14.968Z,99982.36
2023-01-28T14:48:20.791Z,99984.08
2023-01-28T14:49:45.804Z,99983.24
2023-01-28T14:51:04.336Z,99982.39
2023-01-28T14:52:25.617Z,99984.08
2023-01-28T14:53:59.085Z,99990.03
2023-01-28T14:56:51.460Z,99990.91
2023-01-28T14:57:58.060Z,99989.17
2023-01-28T14:59:19.243Z,99993.44
2023-01-28T15:00:27.636Z,99994.30
2023-01-28T15:01:31.811Z,99992.59
2023-01-28T15:02:35.097Z,100000.27
2023-01-28T15:03:41.771Z,99995.96
2023-01-28T15:04:47.753Z,99999.38
2023-01-28T15:05:53.833Z,99995.97
2023-01-28T15:06:59.423Z,99997.70
2023-01-28T15:08:02.135Z,99993.44
2023-01-28T15:09:12.083Z,99999.40
2023-01-28T15:10:22.375Z,100000.24
2023-01-28T15:11:28.840Z,99997.67
2023-01-28T15:12:35.860Z,100004.52
2023-01-28T15:13:47.054Z,99997.69
2023-01-28T15:14:49.440Z,100003.64
2023-01-28T15:16:00.274Z,100004.48
2023-01-28T15:17:04.274Z,100006.19
2023-01-28T15:18:24.011Z,100001.08
2023-01-28T15:19:35.810Z,99999.39
2023-01-28T15:20:38.666Z,99996.81
2023-01-28T15:21:44.316Z,99997.66
2023-01-28T15:22:47.223Z,99995.95
2023-01-28T15:23:53.144Z,99995.09
2023-01-28T15:24:56.642Z,100004.47
2023-01-28T15:26:10.196Z,100006.17
2023-01-28T15:28:33.764Z,100001.08
2023-01-28T15:29:37.819Z,100005.28
2023-01-28T15:30:43.790Z,100000.17
2023-01-28T15:31:56.702Z,99998.48
2023-01-28T15:33:18.765Z,100000.17
2023-01-28T15:34:25.828Z,100001.86
2023-01-28T15:35:29.697Z,99997.59
2023-01-28T15:36:33.099Z,100003.58
2023-01-28T15:37:36.649Z,99997.59
2023-01-28T15:38:40.755Z,100008.69
2023-01-28T15:39:47.135Z,100004.42
2023-01-28T15:41:00.575Z,100006.98
2023-01-28T15:42:07.255Z,100006.11
2023-01-28T15:44:44.277Z,99999.30
2023-01-28T15:45:54.993Z,100000.11
2023-01-28T15:47:00.453Z,100012.89
2023-01-28T15:48:07.018Z,100012.89
2023-01-28T15:49:18.435Z,100014.58
2023-01-28T15:50:26.906Z,100019.69
2023-01-28T15:51:33.954Z,100016.28
2023-01-28T15:52:42.256Z,100015.45
2023-01-28T15:53:49.329Z,100017.97
2023-01-28T15:54:53.182Z,100016.27
2023-01-28T15:56:04.769Z,100015.42
2023-01-28T15:58:36.647Z,100006.08
2023-01-28T15:59:38.933Z,100009.44
2023-01-28T16:00:41.274Z,100006.05
2023-01-28T16:01:44.165Z,100010.25
2023-01-28T16:02:49.392Z,100006.83
2023-01-28T16:04:04.780Z,100012.79
2023-01-28T16:05:10.322Z,100013.63
2023-01-28T16:06:19.657Z,100008.48
2023-01-28T16:07:22.127Z,100016.15
2023-01-28T16:08:31.781Z,100018.67
2023-01-28T16:09:36.266Z,100016.96
2023-01-28T16:10:39.957Z,100015.25
2023-01-28T16:11:45.066Z,100024.63
2023-01-28T16:12:55.541Z,100024.63
2023-01-28T16:13:58.986Z,100022.94
2023-01-28T16:15:02.057Z,100022.06
2023-01-28T16:16:05.326Z,100026.38
2023-01-28T16:17:08.188Z,100023.81
2023-01-28T16:18:31.818Z,100021.27
2023-01-28T16:19:40.706Z,100019.48
2023-01-28T16:20:46.740Z,100012.69
2023-01-28T16:21:48.908Z,100019.52
2023-01-28T16:22:53.889Z,100006.74
2023-01-28T16:24:26.594Z,100015.18
2023-01-28T16:25:32.372Z,100017.70
2023-01-28T16:26:35.958Z,100020.21
2023-01-28T16:27:38.854Z,100014.27
2023-01-28T16:28:41.937Z,100011.72
2023-01-28T16:29:45.148Z,100021.97
2023-01-28T16:30:47.737Z,100021.97
2023-01-28T16:31:51.942Z,100023.67
2023-01-28T16:32:56.560Z,100018.53
2023-01-28T16:33:58.763Z,100015.11
2023-01-28T16:35:01.725Z,100017.70
2023-01-28T16:36:08.559Z,100023.68
2023-01-28T16:37:09.858Z,100027.11
2023-01-28T16:38:15.051Z,100019.48
2023-01-28T16:39:17.465Z,100021.20
2023-01-28T16:40:22.434Z,100029.70
2023-01-28T16:41:28.084Z,100022.88
2023-01-28T16:42:31.729Z,100018.64
2023-01-28T16:44:38.015Z,100016.13
2023-01-28T16:45:42.144Z,100022.94
2023-01-28T16:46:46.300Z,100016.99
2023-01-28T16:47:49.385Z,100022.13
2023-01-28T16:48:51.440Z,100019.58
2023-01-28T16:49:53.645Z,100019.61
2023-01-28T16:50:57.310Z,100020.45
2023-01-28T16:52:00.829Z,100025.50
2023-01-28T16:53:04.605Z,100019.52
2023-01-28T16:54:06.982Z,100022.98
2023-01-28T16:55:15.569Z,100014.47
2023-01-28T16:56:30.690Z,100022.94
2023-01-28T16:57:26.521Z,100016.92
2023-01-28T16:58:29.885Z,100016.05
2023-01-28T16:59:32.191Z,100011.78
2023-01-28T17:00:36.060Z,100017.84
2023-01-28T17:01:39.055Z,100023.78
2023-01-28T17:02:41.519Z,100022.10
2023-01-28T17:03:43.697Z,100022.98
2023-01-28T17:04:45.988Z,100030.67
2023-01-28T17:05:48.122Z,100024.72
2023-01-28T17:06:52.638Z,100034.94
2023-01-28T17:07:56.708Z,100029.83
2023-01-28T17:09:00.172Z,100032.38
2023-01-28T17:10:04.388Z,100028.92
2023-01-28T17:11:07.081Z,100029.80
2023-01-28T17:12:09.809Z,100024.69
2023-01-28T17:13:12.737Z,100022.16
2023-01-28T17:14:15.012Z,100023.84
2023-01-28T17:15:18.157Z,100024.72
2023-01-28T17:16:20.887Z,100024.72
2023-01-28T17:17:23.282Z,100023.91
2023-01-28T17:18:25.332Z,100031.59
2023-01-28T17:19:27.550Z,100033.34
2023-01-28T17:20:30.126Z,100024.80
2023-01-28T17:21:32.264Z,100032.49
2023-01-28T17:22:35.551Z,100028.25
2023-01-28T17:23:38.835Z,100032.52
2023-01-28T17:24:41.116Z,100028.17
2023-01-28T17:25:43.440Z,100024.77
2023-01-28T17:26:45.947Z,100029.06
2023-01-28T17:27:50.272Z,100025.69
2023-01-28T17:28:59.853Z,100024.80
2023-01-28T17:30:02.216Z,100023.95
2023-01-28T17:31:09.456Z,100021.40
2023-01-28T17:32:12.495Z,100027.33
2023-01-28T17:33:15.080Z,100023.87
2023-01-28T17:34:17.183Z,100023.84
2023-01-28T17:35:19.332Z,100017.86
2023-01-28T17:36:23.267Z,100018.73
2023-01-28T17:37:27.222Z,100021.29
2023-01-28T17:38:29.697Z,100016.18
2023-01-28T17:39:31.817Z,100015.31
2023-01-28T17:40:36.326Z,100017.02
2023-01-28T17:41:38.665Z,100018.70
2023-01-28T17:42:41.896Z,100019.58
2023-01-28T17:43:46.539Z,100021.27
2023-01-28T17:44:48.845Z,100021.20
2023-01-28T17:45:51.049Z,100021.20
2023-01-28T17:46:53.791Z,100013.53
2023-01-28T21:49:19.330Z,100068.08
2023-01-28T21:50:22.857Z,100070.42
2023-01-28T21:51:35.710Z,100068.75
2023-01-28T21:52:37.828Z,100072.20
2023-01-28T21:53:41.568Z,100068.90
2023-01-28T21:54:45.318Z,100068.15
2023-01-28T21:55:49.285Z,100069.05
2023-01-28T21:56:53.174Z,100064.03
2023-01-28T21:57:57.087Z,100070.87
2023-01-28T21:59:19.098Z,100060.66
2023-01-28T22:00:23.772Z,100070.84
2023-01-28T22:01:25.917Z,100064.03
2023-01-28T22:02:28.373Z,100057.28
2023-01-28T22:03:31.491Z,100064.93
2023-01-28T22:04:36.466Z,100061.58
2023-01-28T22:05:39.545Z,100065.02
2023-01-28T22:06:42.682Z,100063.30
2023-01-28T22:07:45.275Z,100064.13
2023-01-28T22:08:47.844Z,100056.45
2023-01-28T22:09:52.236Z,100062.45
2023-01-28T22:10:56.927Z,100060.73
2023-01-28T22:12:01.656Z,100060.75
2023-01-28T22:13:03.746Z,100063.34
2023-01-28T22:14:06.526Z,100066.80
2023-01-28T22:15:10.195Z,100069.33
2023-01-28T22:16:12.636Z,100059.06
2023-01-28T22:17:15.744Z,100063.28
2023-01-28T22:18:17.879Z,100061.61
2023-01-28T22:19:20.211Z,100062.53
2023-01-28T22:20:22.726Z,100062.53
2023-01-28T22:21:24.920Z,100070.94
2023-01-28T22:22:26.925Z,100063.28
2023-01-28T22:23:29.790Z,100058.89
2023-01-28T22:24:32.100Z,100046.07
2023-01-28T22:25:35.633Z,100055.41
2023-01-28T22:26:39.094Z,100051.14
2023-01-28T22:27:41.507Z,100051.14
2023-01-28T22:28:44.689Z,100039.94
2023-01-28T22:29:46.752Z,100050.10
2023-01-28T22:30:50.166Z,100054.33
2023-01-28T22:31:54.162Z,100044.28
2023-01-28T22:32:56.291Z,100047.70
2023-01-28T22:33:58.919Z,100050.27
2023-01-28T22:35:01.443Z,100045.23
2023-01-28T22:36:10.161Z,100039.84
2023-01-28T22:37:12.392Z,100039.84
2023-01-28T22:38:14.417Z,100038.95
2023-01-28T22:39:17.831Z,100044.88
2023-01-28T22:40:19.986Z,100050.02
2023-01-28T22:41:22.598Z,100044.85
2023-01-28T22:42:24.818Z,100052.56
2023-01-28T22:43:26.930Z,100038.94
2023-01-28T22:44:29.628Z,100041.56
2023-01-28T22:45:31.741Z,100039.91
2023-01-28T22:46:35.394Z,100043.13
2023-01-28T22:47:37.998Z,100042.97
2023-01-28T22:48:40.948Z,100039.53
2023-01-28T22:49:43.641Z,100048.05
2023-01-28T22:50:45.987Z,100039.62
2023-01-28T22:51:49.169Z,100041.41
2023-01-28T22:52:53.472Z,100038.95
2023-01-28T22:53:56.564Z,100041.58
2023-01-28T22:55:00.036Z,100038.06
2023-01-28T22:56:02.816Z,100043.22
2023-01-28T22:57:05.346Z,100042.38
2023-01-28T22:58:08.749Z,100042.38
2023-01-28T22:59:11.916Z,100044.95
2023-01-28T23:00:16.849Z,100039.91
2023-01-28T23:01:19.462Z,100036.46
2023-01-28T23:02:22.132Z,100037.39
2023-01-28T23:03:24.710Z,100038.21
2023-01-28T23:04:27.161Z,100036.54
2023-01-28T23:05:29.559Z,100036.54
2023-01-28T23:06:33.777Z,100034.91
2023-01-28T23:07:36.490Z,100032.36
2023-01-28T23:08:40.602Z,100042.61
2023-01-28T23:10:58.860Z,100030.78
2023-01-28T23:12:01.307Z,100033.25
2023-01-28T23:13:05.244Z,100036.64
2023-01-28T23:14:26.335Z,100035.05
2023-01-28T23:15:48.628Z,100031.72
2023-01-28T23:17:09.941Z,100035.88
2023-01-28T23:18:39.452Z,100033.95
2023-01-28T23:20:00.632Z,100025.45
2023-01-28T23:21:25.114Z,100022.03
2023-01-28T23:22:52.001Z,100024.55
2023-01-28T23:25:22.869Z,100015.43
2023-01-28T23:26:25.283Z,100022.03
2023-01-28T23:27:27.368Z,100022.70
2023-01-28T23:28:31.496Z,100025.30
2023-01-28T23:29:34.038Z,100028.62
2023-01-28T23:30:36.677Z,100024.40
2023-01-28T23:31:45.997Z,100031.15
2023-01-28T23:32:50.214Z,100029.43
2023-01-28T23:33:52.644Z,100031.06
2023-01-28T23:34:54.932Z,100024.26
2023-01-28T23:35:58.623Z,100018.25
2023-01-28T23:37:02.962Z,100019.08
2023-01-28T23:38:05.410Z,100025.97
2023-01-28T23:39:07.603Z,100026.86
2023-01-28T23:40:11.636Z,100017.59
2023-01-28T23:41:13.675Z,100017.69
2023-01-28T23:42:18.609Z,100016.98
2023-01-28T23:43:21.545Z,100021.34
2023-01-28T23:44:25.043Z,100014.52
2023-01-28T23:45:28.217Z,100021.36
2023-01-28T23:46:39.934Z,100007.78
2023-01-28T23:47:38.500Z,100008.66
2023-01-28T23:48:41.531Z,100014.65
2023-01-28T23:49:43.721Z,100011.29
2023-01-28T23:50:46.401Z,100013.00
2023-01-28T23:51:49.041Z,100012.88
2023-01-28T23:52:51.237Z,100016.91
2023-01-28T23:53:53.671Z,100018.52
2023-01-28T23:54:56.064Z,100012.59
2023-01-28T23:55:58.026Z,100005.92
2023-01-28T23:57:01.231Z,100013.69
2023-01-28T23:58:03.173Z,100010.33
2023-01-28T23:59:05.373Z,100012.10
